sensor_id;sensor_type;location;lat;lon;timestamp;P1;durP1;ratioP1;P2;durP2;ratioP2
68300;SDS011;55146;47.468;18.806;2023-08-06T00:01:46;12.80;;;8.30;;
68300;SDS011;55146;47.468;18.806;2023-08-06T00:04:12;11.93;;;7.53;;
68300;SDS011;55146;47.468;18.806;2023-08-06T00:06:37;12.40;;;8.70;;
68300;SDS011;55146;47.468;18.806;2023-08-06T00:09:02;12.93;;;8.60;;
68300;SDS011;55146;47.468;18.806;2023-08-06T00:11:28;14.10;;;8.50;;
68300;SDS011;55146;47.468;18.806;2023-08-06T00:13:53;11.77;;;7.83;;
68300;SDS011;55146;47.468;18.806;2023-08-06T00:16:18;12.20;;;8.13;;
68300;SDS011;55146;47.468;18.806;2023-08-06T00:18:44;12.35;;;8.07;;
68300;SDS011;55146;47.468;18.806;2023-08-06T00:21:09;12.17;;;8.30;;
68300;SDS011;55146;47.468;18.806;2023-08-06T00:23:34;13.33;;;8.43;;
68300;SDS011;55146;47.468;18.806;2023-08-06T00:26:00;15.77;;;7.03;;
68300;SDS011;55146;47.468;18.806;2023-08-06T00:28:25;12.23;;;7.23;;
68300;SDS011;55146;47.468;18.806;2023-08-06T00:30:54;10.97;;;7.50;;
68300;SDS011;55146;47.468;18.806;2023-08-06T00:33:20;10.50;;;6.50;;
68300;SDS011;55146;47.468;18.806;2023-08-06T00:35:46;12.98;;;6.57;;
68300;SDS011;55146;47.468;18.806;2023-08-06T00:38:12;10.07;;;6.80;;
68300;SDS011;55146;47.468;18.806;2023-08-06T00:40:37;10.20;;;5.63;;
68300;SDS011;55146;47.468;18.806;2023-08-06T00:43:03;11.57;;;7.00;;
68300;SDS011;55146;47.468;18.806;2023-08-06T00:45:28;9.25;;;6.82;;
68300;SDS011;55146;47.468;18.806;2023-08-06T00:47:55;10.93;;;7.28;;
68300;SDS011;55146;47.468;18.806;2023-08-06T00:50:21;9.90;;;6.67;;
68300;SDS011;55146;47.468;18.806;2023-08-06T00:52:48;12.90;;;6.70;;
68300;SDS011;55146;47.468;18.806;2023-08-06T00:55:14;20.40;;;7.68;;
68300;SDS011;55146;47.468;18.806;2023-08-06T00:57:40;11.32;;;7.35;;
68300;SDS011;55146;47.468;18.806;2023-08-06T01:00:06;13.73;;;6.80;;
68300;SDS011;55146;47.468;18.806;2023-08-06T01:02:32;13.57;;;7.10;;
68300;SDS011;55146;47.468;18.806;2023-08-06T01:04:57;13.70;;;7.40;;
68300;SDS011;55146;47.468;18.806;2023-08-06T01:16:09;8.77;;;5.90;;
68300;SDS011;55146;47.468;18.806;2023-08-06T01:18:36;9.27;;;6.00;;
68300;SDS011;55146;47.468;18.806;2023-08-06T01:21:04;9.60;;;5.75;;
68300;SDS011;55146;47.468;18.806;2023-08-06T01:23:29;9.33;;;6.50;;
68300;SDS011;55146;47.468;18.806;2023-08-06T01:26:06;10.30;;;6.37;;
68300;SDS011;55146;47.468;18.806;2023-08-06T01:28:44;10.70;;;6.72;;
68300;SDS011;55146;47.468;18.806;2023-08-06T01:31:29;13.37;;;7.07;;
68300;SDS011;55146;47.468;18.806;2023-08-06T01:33:58;12.63;;;7.07;;
68300;SDS011;55146;47.468;18.806;2023-08-06T01:36:24;10.93;;;6.72;;
68300;SDS011;55146;47.468;18.806;2023-08-06T01:38:51;13.40;;;6.72;;
68300;SDS011;55146;47.468;18.806;2023-08-06T01:41:18;12.75;;;7.05;;
68300;SDS011;55146;47.468;18.806;2023-08-06T01:43:43;8.87;;;5.73;;
68300;SDS011;55146;47.468;18.806;2023-08-06T01:46:08;10.60;;;6.63;;
68300;SDS011;55146;47.468;18.806;2023-08-06T01:48:34;9.03;;;5.30;;
68300;SDS011;55146;47.468;18.806;2023-08-06T01:50:59;8.13;;;6.03;;
68300;SDS011;55146;47.468;18.806;2023-08-06T01:53:24;8.80;;;5.43;;
68300;SDS011;55146;47.468;18.806;2023-08-06T01:55:50;7.77;;;4.37;;
68300;SDS011;55146;47.468;18.806;2023-08-06T01:58:15;9.37;;;5.27;;
68300;SDS011;55146;47.468;18.806;2023-08-06T02:00:40;9.83;;;5.63;;
68300;SDS011;55146;47.468;18.806;2023-08-06T02:03:06;9.57;;;4.63;;
68300;SDS011;55146;47.468;18.806;2023-08-06T02:05:32;13.93;;;6.77;;
68300;SDS011;55146;47.468;18.806;2023-08-06T02:07:57;10.80;;;5.40;;
68300;SDS011;55146;47.468;18.806;2023-08-06T02:10:22;8.83;;;5.40;;
68300;SDS011;55146;47.468;18.806;2023-08-06T02:12:48;8.33;;;5.30;;
68300;SDS011;55146;47.468;18.806;2023-08-06T02:15:13;11.93;;;4.60;;
68300;SDS011;55146;47.468;18.806;2023-08-06T02:17:38;7.28;;;5.18;;
68300;SDS011;55146;47.468;18.806;2023-08-06T02:20:04;8.93;;;4.40;;
68300;SDS011;55146;47.468;18.806;2023-08-06T02:22:30;11.70;;;4.73;;
68300;SDS011;55146;47.468;18.806;2023-08-06T02:24:55;7.72;;;4.40;;
68300;SDS011;55146;47.468;18.806;2023-08-06T02:27:20;10.37;;;4.47;;
68300;SDS011;55146;47.468;18.806;2023-08-06T02:29:46;7.43;;;4.40;;
68300;SDS011;55146;47.468;18.806;2023-08-06T02:32:11;6.80;;;4.33;;
68300;SDS011;55146;47.468;18.806;2023-08-06T02:34:37;7.27;;;4.53;;
68300;SDS011;55146;47.468;18.806;2023-08-06T02:37:02;7.30;;;4.12;;
68300;SDS011;55146;47.468;18.806;2023-08-06T02:39:27;7.87;;;5.37;;
68300;SDS011;55146;47.468;18.806;2023-08-06T02:41:53;10.73;;;4.33;;
68300;SDS011;55146;47.468;18.806;2023-08-06T02:44:18;10.37;;;4.87;;
68300;SDS011;55146;47.468;18.806;2023-08-06T02:46:46;9.07;;;4.40;;
68300;SDS011;55146;47.468;18.806;2023-08-06T02:49:11;8.23;;;4.53;;
68300;SDS011;55146;47.468;18.806;2023-08-06T02:51:37;9.40;;;4.80;;
68300;SDS011;55146;47.468;18.806;2023-08-06T02:54:02;10.30;;;4.37;;
68300;SDS011;55146;47.468;18.806;2023-08-06T02:56:28;8.63;;;3.87;;
68300;SDS011;55146;47.468;18.806;2023-08-06T02:58:53;7.55;;;4.22;;
68300;SDS011;55146;47.468;18.806;2023-08-06T03:01:18;6.80;;;3.77;;
68300;SDS011;55146;47.468;18.806;2023-08-06T03:03:44;6.60;;;3.60;;
68300;SDS011;55146;47.468;18.806;2023-08-06T03:06:09;8.07;;;4.80;;
68300;SDS011;55146;47.468;18.806;2023-08-06T03:08:34;7.63;;;4.13;;
68300;SDS011;55146;47.468;18.806;2023-08-06T03:11:00;6.70;;;3.90;;
68300;SDS011;55146;47.468;18.806;2023-08-06T03:13:25;7.23;;;4.50;;
68300;SDS011;55146;47.468;18.806;2023-08-06T03:15:51;8.10;;;3.80;;
68300;SDS011;55146;47.468;18.806;2023-08-06T03:18:18;7.43;;;4.75;;
68300;SDS011;55146;47.468;18.806;2023-08-06T03:20:44;9.63;;;4.00;;
68300;SDS011;55146;47.468;18.806;2023-08-06T03:23:10;8.10;;;4.60;;
68300;SDS011;55146;47.468;18.806;2023-08-06T03:25:35;9.47;;;4.70;;
68300;SDS011;55146;47.468;18.806;2023-08-06T03:28:01;9.90;;;4.47;;
68300;SDS011;55146;47.468;18.806;2023-08-06T03:30:27;8.97;;;4.80;;
68300;SDS011;55146;47.468;18.806;2023-08-06T03:32:52;10.97;;;5.03;;
68300;SDS011;55146;47.468;18.806;2023-08-06T03:35:18;7.80;;;4.73;;
68300;SDS011;55146;47.468;18.806;2023-08-06T03:37:43;8.40;;;5.20;;
68300;SDS011;55146;47.468;18.806;2023-08-06T03:40:08;8.27;;;5.10;;
68300;SDS011;55146;47.468;18.806;2023-08-06T03:42:34;11.77;;;4.70;;
68300;SDS011;55146;47.468;18.806;2023-08-06T03:45:00;9.85;;;4.95;;
68300;SDS011;55146;47.468;18.806;2023-08-06T03:47:25;6.77;;;4.40;;
68300;SDS011;55146;47.468;18.806;2023-08-06T03:49:50;6.50;;;3.73;;
68300;SDS011;55146;47.468;18.806;2023-08-06T03:52:16;6.87;;;4.10;;
68300;SDS011;55146;47.468;18.806;2023-08-06T03:54:41;5.37;;;3.07;;
68300;SDS011;55146;47.468;18.806;2023-08-06T03:57:08;4.80;;;2.65;;
68300;SDS011;55146;47.468;18.806;2023-08-06T03:59:33;4.37;;;2.10;;
68300;SDS011;55146;47.468;18.806;2023-08-06T04:01:59;3.37;;;1.75;;
68300;SDS011;55146;47.468;18.806;2023-08-06T04:04:24;4.03;;;2.30;;
68300;SDS011;55146;47.468;18.806;2023-08-06T04:06:49;4.60;;;1.97;;
68300;SDS011;55146;47.468;18.806;2023-08-06T04:09:15;3.50;;;2.07;;
68300;SDS011;55146;47.468;18.806;2023-08-06T04:11:40;3.73;;;1.80;;
68300;SDS011;55146;47.468;18.806;2023-08-06T04:14:05;4.50;;;2.17;;
68300;SDS011;55146;47.468;18.806;2023-08-06T04:16:31;4.43;;;2.47;;
68300;SDS011;55146;47.468;18.806;2023-08-06T04:18:56;8.40;;;1.87;;
68300;SDS011;55146;47.468;18.806;2023-08-06T04:21:23;4.03;;;1.80;;
68300;SDS011;55146;47.468;18.806;2023-08-06T04:23:48;3.40;;;2.10;;
68300;SDS011;55146;47.468;18.806;2023-08-06T04:26:13;2.90;;;1.37;;
68300;SDS011;55146;47.468;18.806;2023-08-06T04:28:39;4.47;;;1.00;;
68300;SDS011;55146;47.468;18.806;2023-08-06T04:31:04;3.97;;;1.10;;
68300;SDS011;55146;47.468;18.806;2023-08-06T04:33:30;2.77;;;1.10;;
68300;SDS011;55146;47.468;18.806;2023-08-06T04:35:55;5.80;;;1.33;;
68300;SDS011;55146;47.468;18.806;2023-08-06T04:38:21;5.63;;;1.53;;
68300;SDS011;55146;47.468;18.806;2023-08-06T04:40:47;6.70;;;1.45;;
68300;SDS011;55146;47.468;18.806;2023-08-06T04:43:13;3.77;;;1.37;;
68300;SDS011;55146;47.468;18.806;2023-08-06T04:45:38;5.03;;;1.97;;
68300;SDS011;55146;47.468;18.806;2023-08-06T04:48:11;3.42;;;1.95;;
68300;SDS011;55146;47.468;18.806;2023-08-06T04:50:36;2.90;;;1.40;;
68300;SDS011;55146;47.468;18.806;2023-08-06T04:53:02;3.50;;;1.20;;
68300;SDS011;55146;47.468;18.806;2023-08-06T04:55:27;4.00;;;1.20;;
68300;SDS011;55146;47.468;18.806;2023-08-06T04:57:52;3.20;;;0.80;;
68300;SDS011;55146;47.468;18.806;2023-08-06T05:00:18;4.65;;;1.73;;
68300;SDS011;55146;47.468;18.806;2023-08-06T05:02:43;4.10;;;1.00;;
68300;SDS011;55146;47.468;18.806;2023-08-06T05:05:09;2.37;;;0.63;;
68300;SDS011;55146;47.468;18.806;2023-08-06T05:07:34;3.30;;;0.87;;
68300;SDS011;55146;47.468;18.806;2023-08-06T05:09:59;3.00;;;1.23;;
68300;SDS011;55146;47.468;18.806;2023-08-06T05:12:25;4.45;;;0.77;;
68300;SDS011;55146;47.468;18.806;2023-08-06T05:14:50;2.90;;;0.97;;
68300;SDS011;55146;47.468;18.806;2023-08-06T05:17:16;3.47;;;0.73;;
68300;SDS011;55146;47.468;18.806;2023-08-06T05:19:41;2.40;;;0.97;;
68300;SDS011;55146;47.468;18.806;2023-08-06T05:22:06;2.10;;;0.87;;
68300;SDS011;55146;47.468;18.806;2023-08-06T05:24:32;2.43;;;0.90;;
68300;SDS011;55146;47.468;18.806;2023-08-06T05:26:57;2.60;;;1.13;;
68300;SDS011;55146;47.468;18.806;2023-08-06T05:29:22;2.15;;;0.80;;
68300;SDS011;55146;47.468;18.806;2023-08-06T05:31:47;3.00;;;0.83;;
68300;SDS011;55146;47.468;18.806;2023-08-06T05:34:13;2.03;;;0.80;;
68300;SDS011;55146;47.468;18.806;2023-08-06T05:36:38;2.37;;;0.77;;
68300;SDS011;55146;47.468;18.806;2023-08-06T05:39:03;2.83;;;1.23;;
68300;SDS011;55146;47.468;18.806;2023-08-06T05:41:29;2.57;;;1.20;;
68300;SDS011;55146;47.468;18.806;2023-08-06T05:43:54;2.97;;;1.27;;
68300;SDS011;55146;47.468;18.806;2023-08-06T05:46:19;3.53;;;1.53;;
68300;SDS011;55146;47.468;18.806;2023-08-06T05:48:45;2.67;;;1.30;;
68300;SDS011;55146;47.468;18.806;2023-08-06T05:51:10;2.70;;;1.27;;
68300;SDS011;55146;47.468;18.806;2023-08-06T05:53:37;2.50;;;1.00;;
68300;SDS011;55146;47.468;18.806;2023-08-06T05:56:03;2.50;;;0.98;;
68300;SDS011;55146;47.468;18.806;2023-08-06T05:58:29;2.90;;;1.57;;
68300;SDS011;55146;47.468;18.806;2023-08-06T06:00:56;2.92;;;1.05;;
68300;SDS011;55146;47.468;18.806;2023-08-06T06:03:21;2.80;;;1.02;;
68300;SDS011;55146;47.468;18.806;2023-08-06T06:05:47;3.10;;;1.57;;
68300;SDS011;55146;47.468;18.806;2023-08-06T06:08:12;4.93;;;1.67;;
68300;SDS011;55146;47.468;18.806;2023-08-06T06:10:37;3.03;;;1.17;;
68300;SDS011;55146;47.468;18.806;2023-08-06T06:13:03;2.67;;;1.17;;
68300;SDS011;55146;47.468;18.806;2023-08-06T06:15:28;2.40;;;0.80;;
68300;SDS011;55146;47.468;18.806;2023-08-06T06:17:53;3.83;;;1.60;;
68300;SDS011;55146;47.468;18.806;2023-08-06T06:20:19;3.00;;;1.90;;
68300;SDS011;55146;47.468;18.806;2023-08-06T06:22:44;3.60;;;1.57;;
68300;SDS011;55146;47.468;18.806;2023-08-06T06:25:10;3.33;;;1.20;;
68300;SDS011;55146;47.468;18.806;2023-08-06T06:27:35;3.15;;;1.10;;
68300;SDS011;55146;47.468;18.806;2023-08-06T06:30:00;2.60;;;0.93;;
68300;SDS011;55146;47.468;18.806;2023-08-06T06:32:26;4.07;;;1.27;;
68300;SDS011;55146;47.468;18.806;2023-08-06T06:34:51;3.20;;;0.93;;
68300;SDS011;55146;47.468;18.806;2023-08-06T06:37:17;4.40;;;1.30;;
68300;SDS011;55146;47.468;18.806;2023-08-06T06:39:42;2.80;;;1.43;;
68300;SDS011;55146;47.468;18.806;2023-08-06T06:42:09;3.22;;;1.55;;
68300;SDS011;55146;47.468;18.806;2023-08-06T06:44:34;2.90;;;1.43;;
68300;SDS011;55146;47.468;18.806;2023-08-06T06:46:59;2.87;;;1.03;;
68300;SDS011;55146;47.468;18.806;2023-08-06T06:49:25;3.60;;;1.67;;
68300;SDS011;55146;47.468;18.806;2023-08-06T06:51:50;4.30;;;1.17;;
68300;SDS011;55146;47.468;18.806;2023-08-06T06:54:15;2.67;;;1.10;;
68300;SDS011;55146;47.468;18.806;2023-08-06T06:56:41;2.57;;;1.17;;
68300;SDS011;55146;47.468;18.806;2023-08-06T06:59:07;4.50;;;0.97;;
68300;SDS011;55146;47.468;18.806;2023-08-06T07:01:32;2.87;;;0.97;;
68300;SDS011;55146;47.468;18.806;2023-08-06T07:03:57;2.70;;;1.35;;
68300;SDS011;55146;47.468;18.806;2023-08-06T07:06:23;2.90;;;0.80;;
68300;SDS011;55146;47.468;18.806;2023-08-06T07:08:48;2.57;;;1.20;;
68300;SDS011;55146;47.468;18.806;2023-08-06T07:11:13;4.03;;;1.57;;
68300;SDS011;55146;47.468;18.806;2023-08-06T07:13:39;2.40;;;1.00;;
68300;SDS011;55146;47.468;18.806;2023-08-06T07:16:04;2.83;;;0.93;;
68300;SDS011;55146;47.468;18.806;2023-08-06T07:18:30;3.63;;;1.10;;
68300;SDS011;55146;47.468;18.806;2023-08-06T07:20:55;2.40;;;0.97;;
68300;SDS011;55146;47.468;18.806;2023-08-06T07:23:21;2.60;;;1.17;;
68300;SDS011;55146;47.468;18.806;2023-08-06T07:25:48;2.67;;;1.42;;
68300;SDS011;55146;47.468;18.806;2023-08-06T07:28:14;2.50;;;0.90;;
68300;SDS011;55146;47.468;18.806;2023-08-06T07:30:40;2.93;;;1.00;;
68300;SDS011;55146;47.468;18.806;2023-08-06T07:33:06;2.60;;;1.33;;
68300;SDS011;55146;47.468;18.806;2023-08-06T07:35:32;2.93;;;1.40;;
68300;SDS011;55146;47.468;18.806;2023-08-06T07:37:58;2.83;;;1.62;;
68300;SDS011;55146;47.468;18.806;2023-08-06T07:40:23;4.20;;;1.55;;
68300;SDS011;55146;47.468;18.806;2023-08-06T07:42:49;3.30;;;1.57;;
68300;SDS011;55146;47.468;18.806;2023-08-06T07:45:14;2.60;;;1.27;;
68300;SDS011;55146;47.468;18.806;2023-08-06T07:47:40;2.53;;;0.80;;
68300;SDS011;55146;47.468;18.806;2023-08-06T07:50:05;2.70;;;1.27;;
68300;SDS011;55146;47.468;18.806;2023-08-06T07:52:31;2.50;;;0.80;;
68300;SDS011;55146;47.468;18.806;2023-08-06T07:54:56;2.90;;;1.57;;
68300;SDS011;55146;47.468;18.806;2023-08-06T07:57:22;3.63;;;1.60;;
68300;SDS011;55146;47.468;18.806;2023-08-06T07:59:47;2.97;;;0.90;;
68300;SDS011;55146;47.468;18.806;2023-08-06T08:02:12;2.67;;;1.17;;
68300;SDS011;55146;47.468;18.806;2023-08-06T08:04:38;2.90;;;1.63;;
68300;SDS011;55146;47.468;18.806;2023-08-06T08:07:03;3.07;;;1.23;;
68300;SDS011;55146;47.468;18.806;2023-08-06T08:09:29;2.92;;;1.23;;
68300;SDS011;55146;47.468;18.806;2023-08-06T08:11:54;3.80;;;1.70;;
68300;SDS011;55146;47.468;18.806;2023-08-06T08:14:19;2.87;;;1.50;;
68300;SDS011;55146;47.468;18.806;2023-08-06T08:16:45;2.97;;;0.97;;
68300;SDS011;55146;47.468;18.806;2023-08-06T08:19:10;2.50;;;0.80;;
68300;SDS011;55146;47.468;18.806;2023-08-06T08:21:36;2.90;;;1.80;;
68300;SDS011;55146;47.468;18.806;2023-08-06T08:24:01;2.90;;;1.37;;
68300;SDS011;55146;47.468;18.806;2023-08-06T08:26:29;3.60;;;1.43;;
68300;SDS011;55146;47.468;18.806;2023-08-06T08:28:54;3.42;;;1.33;;
68300;SDS011;55146;47.468;18.806;2023-08-06T08:31:20;3.93;;;1.30;;
68300;SDS011;55146;47.468;18.806;2023-08-06T08:33:45;2.97;;;1.53;;
68300;SDS011;55146;47.468;18.806;2023-08-06T08:36:10;2.97;;;1.77;;
68300;SDS011;55146;47.468;18.806;2023-08-06T08:38:36;2.80;;;1.43;;
68300;SDS011;55146;47.468;18.806;2023-08-06T08:41:01;2.77;;;1.23;;
68300;SDS011;55146;47.468;18.806;2023-08-06T08:43:26;3.37;;;1.77;;
68300;SDS011;55146;47.468;18.806;2023-08-06T08:45:53;3.30;;;2.10;;
68300;SDS011;55146;47.468;18.806;2023-08-06T08:48:25;3.15;;;1.92;;
68300;SDS011;55146;47.468;18.806;2023-08-06T08:50:52;3.40;;;1.90;;
68300;SDS011;55146;47.468;18.806;2023-08-06T08:53:17;4.30;;;1.80;;
68300;SDS011;55146;47.468;18.806;2023-08-06T08:55:43;3.40;;;2.03;;
68300;SDS011;55146;47.468;18.806;2023-08-06T08:58:12;3.60;;;2.00;;
68300;SDS011;55146;47.468;18.806;2023-08-06T09:00:38;3.85;;;2.00;;
68300;SDS011;55146;47.468;18.806;2023-08-06T09:03:06;3.42;;;2.00;;
68300;SDS011;55146;47.468;18.806;2023-08-06T09:05:31;3.80;;;2.30;;
68300;SDS011;55146;47.468;18.806;2023-08-06T09:07:59;3.40;;;1.98;;
68300;SDS011;55146;47.468;18.806;2023-08-06T09:10:29;4.07;;;2.78;;
68300;SDS011;55146;47.468;18.806;2023-08-06T09:12:56;4.40;;;2.80;;
68300;SDS011;55146;47.468;18.806;2023-08-06T09:15:25;4.17;;;2.57;;
68300;SDS011;55146;47.468;18.806;2023-08-06T09:17:52;4.72;;;2.47;;
68300;SDS011;55146;47.468;18.806;2023-08-06T09:20:18;3.80;;;2.30;;
68300;SDS011;55146;47.468;18.806;2023-08-06T09:22:44;3.30;;;1.73;;
68300;SDS011;55146;47.468;18.806;2023-08-06T09:25:10;4.05;;;1.95;;
68300;SDS011;55146;47.468;18.806;2023-08-06T09:27:38;4.65;;;2.45;;
68300;SDS011;55146;47.468;18.806;2023-08-06T09:30:05;3.70;;;2.37;;
68300;SDS011;55146;47.468;18.806;2023-08-06T09:32:44;3.30;;;1.90;;
68300;SDS011;55146;47.468;18.806;2023-08-06T09:35:18;4.40;;;1.77;;
68300;SDS011;55146;47.468;18.806;2023-08-06T09:37:43;4.20;;;1.65;;
68300;SDS011;55146;47.468;18.806;2023-08-06T09:40:31;3.37;;;1.87;;
68300;SDS011;55146;47.468;18.806;2023-08-06T09:42:56;3.40;;;1.73;;
68300;SDS011;55146;47.468;18.806;2023-08-06T09:45:23;3.23;;;1.83;;
68300;SDS011;55146;47.468;18.806;2023-08-06T09:47:56;3.35;;;2.05;;
68300;SDS011;55146;47.468;18.806;2023-08-06T09:50:22;4.22;;;1.58;;
68300;SDS011;55146;47.468;18.806;2023-08-06T09:52:48;3.20;;;1.85;;
68300;SDS011;55146;47.468;18.806;2023-08-06T09:55:15;3.62;;;1.95;;
68300;SDS011;55146;47.468;18.806;2023-08-06T09:57:41;3.20;;;1.30;;
68300;SDS011;55146;47.468;18.806;2023-08-06T10:00:08;2.92;;;1.23;;
68300;SDS011;55146;47.468;18.806;2023-08-06T10:02:37;3.03;;;1.58;;
68300;SDS011;55146;47.468;18.806;2023-08-06T10:05:07;3.20;;;1.80;;
68300;SDS011;55146;47.468;18.806;2023-08-06T10:07:33;3.05;;;1.12;;
68300;SDS011;55146;47.468;18.806;2023-08-06T10:09:59;4.32;;;1.30;;
68300;SDS011;55146;47.468;18.806;2023-08-06T10:12:25;3.95;;;1.98;;
68300;SDS011;55146;47.468;18.806;2023-08-06T10:14:53;3.50;;;2.10;;
68300;SDS011;55146;47.468;18.806;2023-08-06T10:17:21;5.10;;;1.60;;
68300;SDS011;55146;47.468;18.806;2023-08-06T10:19:47;3.10;;;1.33;;
68300;SDS011;55146;47.468;18.806;2023-08-06T10:22:15;4.40;;;2.00;;
68300;SDS011;55146;47.468;18.806;2023-08-06T10:24:46;3.90;;;2.15;;
68300;SDS011;55146;47.468;18.806;2023-08-06T10:27:28;4.18;;;2.10;;
68300;SDS011;55146;47.468;18.806;2023-08-06T10:29:56;4.43;;;1.63;;
68300;SDS011;55146;47.468;18.806;2023-08-06T10:32:48;3.40;;;1.55;;
68300;SDS011;55146;47.468;18.806;2023-08-06T10:41:21;3.80;;;2.15;;
68300;SDS011;55146;47.468;18.806;2023-08-06T10:43:39;3.70;;;1.77;;
68300;SDS011;55146;47.468;18.806;2023-08-06T10:46:10;3.97;;;1.50;;
68300;SDS011;55146;47.468;18.806;2023-08-06T10:48:39;3.10;;;1.70;;
68300;SDS011;55146;47.468;18.806;2023-08-06T10:51:09;5.25;;;2.12;;
68300;SDS011;55146;47.468;18.806;2023-08-06T10:53:35;3.12;;;1.55;;
68300;SDS011;55146;47.468;18.806;2023-08-06T10:56:01;3.47;;;1.70;;
68300;SDS011;55146;47.468;18.806;2023-08-06T10:58:36;3.28;;;1.95;;
68300;SDS011;55146;47.468;18.806;2023-08-06T11:01:02;3.43;;;2.10;;
68300;SDS011;55146;47.468;18.806;2023-08-06T11:03:27;3.53;;;1.83;;
68300;SDS011;55146;47.468;18.806;2023-08-06T11:05:53;3.60;;;1.75;;
68300;SDS011;55146;47.468;18.806;2023-08-06T11:08:25;3.27;;;1.67;;
68300;SDS011;55146;47.468;18.806;2023-08-06T11:10:52;3.67;;;1.33;;
68300;SDS011;55146;47.468;18.806;2023-08-06T11:13:17;4.73;;;1.90;;
68300;SDS011;55146;47.468;18.806;2023-08-06T11:15:46;3.75;;;2.20;;
68300;SDS011;55146;47.468;18.806;2023-08-06T11:18:11;3.70;;;1.83;;
68300;SDS011;55146;47.468;18.806;2023-08-06T11:20:37;3.60;;;1.73;;
68300;SDS011;55146;47.468;18.806;2023-08-06T11:23:02;4.70;;;2.00;;
68300;SDS011;55146;47.468;18.806;2023-08-06T11:25:29;3.47;;;2.10;;
68300;SDS011;55146;47.468;18.806;2023-08-06T11:27:54;4.63;;;2.33;;
68300;SDS011;55146;47.468;18.806;2023-08-06T11:30:20;3.40;;;2.43;;
68300;SDS011;55146;47.468;18.806;2023-08-06T11:32:45;3.50;;;2.03;;
68300;SDS011;55146;47.468;18.806;2023-08-06T11:35:12;3.53;;;1.95;;
68300;SDS011;55146;47.468;18.806;2023-08-06T11:37:38;3.62;;;2.08;;
68300;SDS011;55146;47.468;18.806;2023-08-06T11:40:08;3.85;;;2.45;;
68300;SDS011;55146;47.468;18.806;2023-08-06T11:42:36;3.30;;;1.57;;
68300;SDS011;55146;47.468;18.806;2023-08-06T11:45:02;3.70;;;2.33;;
68300;SDS011;55146;47.468;18.806;2023-08-06T11:47:29;3.90;;;2.12;;
68300;SDS011;55146;47.468;18.806;2023-08-06T11:49:55;3.40;;;2.00;;
68300;SDS011;55146;47.468;18.806;2023-08-06T11:52:21;3.50;;;2.12;;
68300;SDS011;55146;47.468;18.806;2023-08-06T11:55:05;3.50;;;1.80;;
68300;SDS011;55146;47.468;18.806;2023-08-06T11:57:38;3.65;;;1.92;;
68300;SDS011;55146;47.468;18.806;2023-08-06T12:00:05;3.62;;;2.10;;
68300;SDS011;55146;47.468;18.806;2023-08-06T12:02:35;3.85;;;2.58;;
68300;SDS011;55146;47.468;18.806;2023-08-06T12:05:28;3.58;;;1.98;;
68300;SDS011;55146;47.468;18.806;2023-08-06T12:07:55;3.47;;;1.80;;
68300;SDS011;55146;47.468;18.806;2023-08-06T12:10:22;3.30;;;1.50;;
68300;SDS011;55146;47.468;18.806;2023-08-06T12:12:50;3.47;;;1.98;;
68300;SDS011;55146;47.468;18.806;2023-08-06T12:15:15;3.60;;;2.00;;
68300;SDS011;55146;47.468;18.806;2023-08-06T12:17:41;4.00;;;2.50;;
68300;SDS011;55146;47.468;18.806;2023-08-06T12:20:07;4.40;;;1.98;;
68300;SDS011;55146;47.468;18.806;2023-08-06T12:22:34;3.47;;;1.87;;
68300;SDS011;55146;47.468;18.806;2023-08-06T12:25:03;3.67;;;2.10;;
68300;SDS011;55146;47.468;18.806;2023-08-06T12:27:33;3.30;;;1.70;;
68300;SDS011;55146;47.468;18.806;2023-08-06T12:30:02;5.22;;;2.25;;
68300;SDS011;55146;47.468;18.806;2023-08-06T12:32:29;4.82;;;1.92;;
68300;SDS011;55146;47.468;18.806;2023-08-06T12:34:55;3.80;;;2.17;;
68300;SDS011;55146;47.468;18.806;2023-08-06T12:37:20;5.68;;;2.03;;
68300;SDS011;55146;47.468;18.806;2023-08-06T12:39:46;3.80;;;2.30;;
68300;SDS011;55146;47.468;18.806;2023-08-06T12:42:11;4.15;;;2.25;;
68300;SDS011;55146;47.468;18.806;2023-08-06T12:44:37;4.00;;;2.33;;
68300;SDS011;55146;47.468;18.806;2023-08-06T12:47:02;3.83;;;2.63;;
68300;SDS011;55146;47.468;18.806;2023-08-06T12:49:27;5.47;;;2.20;;
68300;SDS011;55146;47.468;18.806;2023-08-06T12:51:54;5.15;;;2.62;;
68300;SDS011;55146;47.468;18.806;2023-08-06T12:54:19;5.33;;;2.50;;
68300;SDS011;55146;47.468;18.806;2023-08-06T12:56:46;4.45;;;2.28;;
68300;SDS011;55146;47.468;18.806;2023-08-06T12:59:13;4.12;;;2.55;;
68300;SDS011;55146;47.468;18.806;2023-08-06T13:01:39;4.20;;;2.08;;
68300;SDS011;55146;47.468;18.806;2023-08-06T13:04:05;4.10;;;2.97;;
68300;SDS011;55146;47.468;18.806;2023-08-06T13:06:32;3.40;;;1.77;;
68300;SDS011;55146;47.468;18.806;2023-08-06T13:09:08;4.68;;;2.75;;
68300;SDS011;55146;47.468;18.806;2023-08-06T13:11:35;4.28;;;2.40;;
68300;SDS011;55146;47.468;18.806;2023-08-06T13:14:10;4.57;;;2.78;;
68300;SDS011;55146;47.468;18.806;2023-08-06T13:16:37;4.93;;;2.60;;
68300;SDS011;55146;47.468;18.806;2023-08-06T13:19:05;3.93;;;2.57;;
68300;SDS011;55146;47.468;18.806;2023-08-06T13:21:32;3.85;;;2.15;;
68300;SDS011;55146;47.468;18.806;2023-08-06T13:24:07;4.10;;;2.83;;
68300;SDS011;55146;47.468;18.806;2023-08-06T13:26:33;3.97;;;2.65;;
68300;SDS011;55146;47.468;18.806;2023-08-06T13:28:59;6.03;;;2.50;;
68300;SDS011;55146;47.468;18.806;2023-08-06T13:31:27;5.33;;;2.77;;
68300;SDS011;55146;47.468;18.806;2023-08-06T13:33:56;5.43;;;2.85;;
68300;SDS011;55146;47.468;18.806;2023-08-06T13:36:23;3.90;;;2.42;;
68300;SDS011;55146;47.468;18.806;2023-08-06T13:38:51;5.93;;;3.22;;
68300;SDS011;55146;47.468;18.806;2023-08-06T13:41:17;5.23;;;2.30;;
68300;SDS011;55146;47.468;18.806;2023-08-06T13:43:43;4.75;;;2.40;;
68300;SDS011;55146;47.468;18.806;2023-08-06T13:46:10;4.55;;;2.42;;
68300;SDS011;55146;47.468;18.806;2023-08-06T13:48:41;3.70;;;2.30;;
68300;SDS011;55146;47.468;18.806;2023-08-06T13:51:07;5.22;;;3.60;;
68300;SDS011;55146;47.468;18.806;2023-08-06T13:53:33;7.80;;;2.85;;
68300;SDS011;55146;47.468;18.806;2023-08-06T13:55:58;4.97;;;3.03;;
68300;SDS011;55146;47.468;18.806;2023-08-06T13:58:24;8.07;;;2.70;;
68300;SDS011;55146;47.468;18.806;2023-08-06T14:00:51;4.85;;;2.62;;
68300;SDS011;55146;47.468;18.806;2023-08-06T14:03:18;4.40;;;2.93;;
68300;SDS011;55146;47.468;18.806;2023-08-06T14:05:44;5.43;;;3.00;;
68300;SDS011;55146;47.468;18.806;2023-08-06T14:08:10;4.40;;;2.67;;
68300;SDS011;55146;47.468;18.806;2023-08-06T14:10:35;5.10;;;3.20;;
68300;SDS011;55146;47.468;18.806;2023-08-06T14:13:01;4.75;;;3.12;;
68300;SDS011;55146;47.468;18.806;2023-08-06T14:15:27;5.83;;;3.47;;
68300;SDS011;55146;47.468;18.806;2023-08-06T14:17:52;4.22;;;2.75;;
68300;SDS011;55146;47.468;18.806;2023-08-06T14:20:18;5.17;;;2.63;;
68300;SDS011;55146;47.468;18.806;2023-08-06T14:22:44;4.97;;;2.67;;
68300;SDS011;55146;47.468;18.806;2023-08-06T14:25:09;5.27;;;2.50;;
68300;SDS011;55146;47.468;18.806;2023-08-06T14:27:35;3.70;;;2.10;;
68300;SDS011;55146;47.468;18.806;2023-08-06T14:30:01;7.68;;;2.78;;
68300;SDS011;55146;47.468;18.806;2023-08-06T14:32:28;4.20;;;2.12;;
68300;SDS011;55146;47.468;18.806;2023-08-06T14:34:54;4.90;;;2.60;;
68300;SDS011;55146;47.468;18.806;2023-08-06T14:37:20;6.63;;;2.50;;
68300;SDS011;55146;47.468;18.806;2023-08-06T14:39:46;4.10;;;2.25;;
68300;SDS011;55146;47.468;18.806;2023-08-06T14:42:12;4.70;;;3.03;;
68300;SDS011;55146;47.468;18.806;2023-08-06T14:44:38;5.20;;;2.60;;